Time;durP1;ratioP1;P1;durP2;ratioP2;P2;SDS_P1;SDS_P2;PMS_P1;PMS_P2;Temp;Humidity;BMP_temperature;BMP_pressure;BME280_temperature;BME280_humidity;BME280_pressure;Samples;Min_cycle;Max_cycle;Signal;HPM_P1;HPM_P2
2022/09/20 00:02:05;;;;;;;2.60;0.80;;;14.80;90.30;;;;;;10481538;28;20086;-64
2022/09/20 00:07:06;;;;;;;3.03;0.70;;;14.70;90.30;;;;;;10478189;28;20105;-64
2022/09/20 00:12:07;;;;;;;1.05;0.57;;;14.70;90.30;;;;;;10477451;28;20538;-65
2022/09/20 00:17:07;;;;;;;3.00;0.52;;;14.70;90.30;;;;;;10502193;28;20021;-64
2022/09/20 00:22:08;;;;;;;1.98;0.70;;;14.70;90.30;;;;;;10523852;28;20036;-64
2022/09/20 00:27:09;;;;;;;1.73;0.40;;;14.70;90.30;;;;;;10518057;28;20024;-66
2022/09/20 00:32:09;;;;;;;2.10;0.47;;;14.70;90.30;;;;;;10524026;28;20059;-65
2022/09/20 00:37:10;;;;;;;2.25;0.57;;;14.60;90.20;;;;;;10524750;28;20035;-66
2022/09/20 00:42:13;;;;;;;2.13;0.60;;;14.60;90.30;;;;;;10520468;28;20043;-64
2022/09/20 00:47:27;;;;;;;1.67;0.50;;;14.70;90.20;;;;;;10521341;28;20027;-63
2022/09/20 00:52:28;;;;;;;2.60;0.60;;;14.60;90.20;;;;;;10516697;28;20051;-65
2022/09/20 00:57:34;;;;;;;0.60;0.20;;;14.60;90.20;;;;;;10523030;28;20434;-63
2022/09/20 01:02:38;;;;;;;1.55;0.65;;;14.60;90.30;;;;;;10520211;28;20044;-67
2022/09/20 01:07:41;;;;;;;5.68;0.93;;;14.60;90.20;;;;;;10516720;28;20017;-69
2022/09/20 01:12:44;;;;;;;0.70;0.40;;;14.60;90.30;;;;;;10516426;28;20043;-65
2022/09/20 01:17:48;;;;;;;1.77;0.52;;;14.60;90.30;;;;;;10520414;28;20450;-63
2022/09/20 01:23:37;;;;;;;2.22;0.70;;;14.60;90.30;;;;;;10520506;28;20036;-64
2022/09/20 01:28:41;;;;;;;0.70;0.30;;;14.60;90.30;;;;;;10500533;28;20036;-63
2022/09/20 01:33:52;;;;;;;0.85;0.40;;;14.60;90.30;;;;;;10519793;28;20054;-67
2022/09/20 01:38:59;;;;;;;0.93;0.38;;;14.60;90.30;;;;;;10514588;28;20125;-64
2022/09/20 01:44:12;;;;;;;1.90;0.40;;;14.60;90.40;;;;;;10518095;28;20043;-64
2022/09/20 01:49:36;;;;;;;3.65;0.60;;;14.60;90.40;;;;;;10517468;28;20232;-64
2022/09/20 01:55:00;;;;;;;2.58;0.57;;;14.60;90.40;;;;;;10516664;28;20020;-66
2022/09/20 02:00:14;;;;;;;1.77;0.68;;;14.60;90.40;;;;;;10471058;28;20036;-64
2022/09/20 02:05:49;;;;;;;1.60;0.40;;;14.60;90.40;;;;;;10516059;28;20028;-64
2022/09/20 02:11:09;;;;;;;1.50;0.50;;;14.60;90.50;;;;;;10515098;28;20031;-63
2022/09/20 02:16:30;;;;;;;1.55;0.50;;;14.60;90.50;;;;;;10516699;28;20365;-66
2022/09/20 02:21:34;;;;;;;2.15;0.47;;;14.60;90.50;;;;;;10520163;28;20043;-64
2022/09/20 02:27:13;;;;;;;1.33;0.38;;;14.60;90.50;;;;;;10515293;28;20492;-63
2022/09/20 02:32:51;;;;;;;2.47;0.95;;;14.60;90.60;;;;;;10522928;28;20028;-63
2022/09/20 02:38:35;;;;;;;0.82;0.40;;;14.60;90.60;;;;;;10527610;28;20450;-66
2022/09/20 02:43:38;;;;;;;3.97;0.57;;;14.60;90.60;;;;;;10521158;28;20047;-70
2022/09/20 02:49:20;;;;;;;1.98;0.60;;;14.60;90.60;;;;;;10525366;28;20098;-65
2022/09/20 02:54:35;;;;;;;2.28;0.50;;;14.60;90.60;;;;;;10524384;28;20039;-65
2022/09/20 02:59:49;;;;;;;1.08;0.47;;;14.60;90.60;;;;;;10524170;28;20028;-64
2022/09/20 03:05:15;;;;;;;2.35;0.50;;;14.50;90.60;;;;;;10525866;28;20028;-63
2022/09/20 03:10:21;;;;;;;0.70;0.30;;;14.60;90.70;;;;;;10524465;28;20044;-63
2022/09/20 03:15:39;;;;;;;1.20;0.38;;;14.50;90.70;;;;;;10522994;28;20074;-64
2022/09/20 03:21:12;;;;;;;2.10;0.60;;;14.60;90.70;;;;;;10527029;28;20039;-64
2022/09/20 03:26:48;;;;;;;3.50;0.43;;;14.60;90.80;;;;;;10521820;28;20028;-65
2022/09/20 03:32:36;;;;;;;2.13;0.50;;;14.50;90.80;;;;;;10522325;28;20412;-64
2022/09/20 03:37:49;;;;;;;4.72;1.13;;;14.50;90.80;;;;;;10482285;28;20407;-63
2022/09/20 03:43:00;;;;;;;1.90;0.63;;;14.50;90.70;;;;;;10521269;28;20543;-63
2022/09/20 03:48:42;;;;;;;1.15;0.35;;;14.50;90.80;;;;;;10554087;22;20053;-63
2022/09/20 03:54:18;;;;;;;3.17;1.25;;;14.50;90.80;;;;;;10512111;28;20042;-65
2022/09/20 03:59:35;;;;;;;1.27;0.40;;;14.50;90.80;;;;;;10437500;28;20039;-64
2022/09/20 04:04:49;;;;;;;1.88;0.50;;;14.60;90.80;;;;;;10520132;28;20055;-64
2022/09/20 04:09:58;;;;;;;1.38;0.68;;;14.60;90.80;;;;;;10518669;28;20016;-67
2022/09/20 04:15:20;;;;;;;1.65;0.60;;;14.50;90.80;;;;;;10521779;28;20028;-64
2022/09/20 04:20:42;;;;;;;3.40;0.75;;;14.50;90.80;;;;;;10520927;28;20515;-63
2022/09/20 04:25:47;;;;;;;1.15;0.73;;;14.50;90.80;;;;;;10518207;28;20403;-64
2022/09/20 04:30:50;;;;;;;2.30;0.40;;;14.50;91.10;;;;;;10518387;28;20140;-63
2022/09/20 04:41:42;;;;;;;1.00;0.50;;;14.50;90.90;;;;;;10515501;28;20401;-64
2022/09/20 04:46:51;;;;;;;1.38;0.30;;;14.50;90.90;;;;;;10518854;28;20044;-64
2022/09/20 04:52:23;;;;;;;1.20;0.40;;;14.50;90.90;;;;;;10512831;28;20325;-63
2022/09/20 04:57:52;;;;;;;1.45;0.43;;;14.50;90.90;;;;;;10513954;28;20063;-62
2022/09/20 05:03:02;;;;;;;1.35;0.52;;;14.50;91.00;;;;;;10509980;28;20079;-63
2022/09/20 05:08:15;;;;;;;2.67;0.50;;;14.50;91.30;;;;;;10514966;28;20027;-63
2022/09/20 05:13:26;;;;;;;1.17;0.30;;;14.50;91.00;;;;;;10513021;28;20517;-62
2022/09/20 05:19:06;;;;;;;1.35;0.30;;;14.50;91.00;;;;;;10518648;28;20664;-62
2022/09/20 05:24:39;;;;;;;1.08;0.28;;;14.80;91.20;;;;;;10521655;28;20044;-63
2022/09/20 05:29:52;;;;;;;2.10;0.40;;;14.50;91.10;;;;;;10514115;28;20082;-62
2022/09/20 05:35:15;;;;;;;2.42;0.40;;;14.50;91.10;;;;;;10514067;28;20498;-62
2022/09/20 05:40:32;;;;;;;1.35;0.40;;;14.50;91.10;;;;;;10516108;28;20040;-63
2022/09/20 05:45:45;;;;;;;2.13;0.35;;;14.50;91.10;;;;;;10509555;28;20079;-63
2022/09/20 05:50:52;;;;;;;1.55;0.60;;;14.50;91.20;;;;;;10517389;28;20123;-63
2022/09/20 05:56:23;;;;;;;0.70;0.40;;;14.50;91.20;;;;;;10484160;28;20032;-63
2022/09/20 06:01:55;;;;;;;2.22;0.50;;;14.50;91.20;;;;;;10415423;28;20066;-63
2022/09/20 06:07:17;;;;;;;1.75;0.38;;;14.50;91.20;;;;;;10426661;28;20405;-63
2022/09/20 06:12:24;;;;;;;3.00;0.40;;;14.50;91.20;;;;;;10439823;28;20220;-63
2022/09/20 06:18:01;;;;;;;1.65;0.60;;;14.50;91.20;;;;;;10444294;28;20543;-67
2022/09/20 06:23:04;;;;;;;0.50;0.38;;;14.50;91.20;;;;;;10440989;28;20051;-63
2022/09/20 06:33:05;;;;;;;2.53;0.40;;;14.60;91.20;;;;;;10442255;22;20488;-63
2022/09/20 06:43:44;;;;;;;2.05;0.73;;;14.60;91.40;;;;;;10444252;28;20044;-64
2022/09/20 06:48:46;;;;;;;1.63;0.70;;;14.60;91.40;;;;;;10440796;28;20028;-64
2022/09/20 06:53:46;;;;;;;1.90;0.70;;;14.60;91.30;;;;;;10439398;28;20304;-62
2022/09/20 06:58:47;;;;;;;3.50;0.93;;;14.60;91.30;;;;;;10442818;28;20311;-62
2022/09/20 07:03:48;;;;;;;1.63;0.73;;;14.60;91.30;;;;;;10442393;28;20328;-62
2022/09/20 07:08:49;;;;;;;2.22;0.90;;;14.70;91.30;;;;;;10472732;22;20308;-62
2022/09/20 07:13:52;;;;;;;1.67;0.80;;;14.70;91.30;;;;;;10442048;28;20532;-63
2022/09/20 07:18:53;;;;;;;1.80;0.80;;;14.70;91.30;;;;;;10442875;28;20054;-63
2022/09/20 07:23:54;;;;;;;1.38;0.68;;;14.70;91.30;;;;;;10438415;28;20056;-63
2022/09/20 07:28:56;;;;;;;2.50;0.90;;;14.70;91.40;;;;;;10415211;28;20618;-63
2022/09/20 07:33:57;;;;;;;1.15;0.70;;;14.80;91.30;;;;;;10439576;28;20557;-64
2022/09/20 07:38:58;;;;;;;2.95;1.00;;;14.80;91.30;;;;;;10444470;28;20121;-62
2022/09/20 07:44:19;;;;;;;1.38;0.88;;;14.80;91.30;;;;;;10437103;28;20051;-64
2022/09/20 07:49:24;;;;;;;4.03;1.13;;;14.90;91.30;;;;;;10401913;22;20163;-62
2022/09/20 07:54:26;;;;;;;2.00;0.80;;;14.90;91.20;;;;;;10335195;28;20163;-63
2022/09/20 07:59:27;;;;;;;2.83;1.10;;;15.00;91.20;;;;;;10344344;28;20033;-62
2022/09/20 08:04:27;;;;;;;2.85;1.02;;;15.10;91.10;;;;;;10353104;28;20044;-65
2022/09/20 08:09:28;;;;;;;3.72;1.00;;;15.10;91.00;;;;;;10345133;28;20295;-63
2022/09/20 08:14:29;;;;;;;1.77;0.60;;;15.20;91.30;;;;;;10353477;28;20037;-63
2022/09/20 08:19:29;;;;;;;1.23;0.95;;;15.30;91.00;;;;;;10343756;28;20111;-62
2022/09/20 08:24:30;;;;;;;2.03;1.08;;;15.30;90.90;;;;;;10336504;28;20037;-63
2022/09/20 08:29:31;;;;;;;2.40;0.77;;;15.40;90.90;;;;;;10386707;23;20066;-62
2022/09/20 08:34:35;;;;;;;2.60;0.80;;;15.40;90.90;;;;;;10439418;28;20481;-63
2022/09/20 08:39:36;;;;;;;1.85;0.77;;;15.70;90.90;;;;;;10436146;28;20492;-64
2022/09/20 08:44:49;;;;;;;2.35;0.90;;;15.50;90.80;;;;;;10437842;28;20101;-63
2022/09/20 08:49:53;;;;;;;2.85;0.95;;;15.50;90.80;;;;;;10437873;28;20036;-63
2022/09/20 08:54:56;;;;;;;1.25;0.95;;;15.60;90.80;;;;;;10431350;28;20811;-64
2022/09/20 08:59:59;;;;;;;2.15;0.80;;;15.60;90.80;;;;;;10432195;28;20032;-63
2022/09/20 09:05:32;;;;;;;0.73;0.50;;;15.90;90.90;;;;;;10437140;28;20075;-64
2022/09/20 09:10:38;;;;;;;1.90;1.10;;;15.60;90.80;;;;;;10467988;22;20052;-63
2022/09/20 09:15:42;;;;;;;2.78;0.60;;;15.60;90.80;;;;;;10427911;28;20032;-63
2022/09/20 09:20:46;;;;;;;1.13;0.70;;;15.60;90.80;;;;;;10419157;28;20025;-63
2022/09/20 09:25:47;;;;;;;1.88;0.73;;;15.60;91.00;;;;;;10431770;28;20212;-68
2022/09/20 09:30:48;;;;;;;1.30;0.60;;;15.60;90.90;;;;;;10423631;28;20197;-63
2022/09/20 09:36:13;;;;;;;2.80;0.70;;;15.60;90.90;;;;;;10437852;28;20027;-65
2022/09/20 09:41:24;;;;;;;2.95;0.70;;;15.60;90.90;;;;;;10433940;28;20040;-63
2022/09/20 09:46:26;;;;;;;1.45;0.70;;;15.70;90.90;;;;;;10433812;28;20036;-63
2022/09/20 09:51:27;;;;;;;1.80;0.68;;;15.80;90.80;;;;;;10427411;28;20290;-62
2022/09/20 09:56:37;;;;;;;1.85;0.60;;;15.80;90.70;;;;;;10432025;28;20239;-63
2022/09/20 10:01:38;;;;;;;1.13;0.52;;;15.90;90.70;;;;;;10424280;28;20603;-62
2022/09/20 10:06:52;;;;;;;0.93;0.60;;;15.90;90.60;;;;;;10420687;28;20578;-63
2022/09/20 10:11:59;;;;;;;1.10;0.75;;;16.10;90.60;;;;;;10429302;28;20055;-63
2022/09/20 10:17:42;;;;;;;2.28;0.68;;;16.10;90.50;;;;;;10433472;28;20081;-63
2022/09/20 10:22:51;;;;;;;1.35;0.63;;;16.10;90.90;;;;;;10427454;28;20114;-62
2022/09/20 10:28:10;;;;;;;0.63;0.50;;;16.00;90.80;;;;;;10423172;28;20170;-63
2022/09/20 10:33:22;;;;;;;2.55;0.77;;;16.00;90.80;;;;;;10431815;28;20020;-62
2022/09/20 10:38:52;;;;;;;5.80;0.70;;;16.00;90.90;;;;;;10424877;28;20028;-67
2022/09/20 10:43:58;;;;;;;1.05;0.52;;;16.00;91.10;;;;;;10416182;28;20054;-61
2022/09/20 10:49:33;;;;;;;2.97;0.55;;;16.00;91.10;;;;;;10425822;28;20375;-62
2022/09/20 10:54:52;;;;;;;3.85;0.70;;;16.00;91.10;;;;;;10438734;28;20039;-63
2022/09/20 11:00:07;;;;;;;1.92;0.65;;;16.00;91.00;;;;;;10431549;28;20328;-62
2022/09/20 11:05:53;;;;;;;1.02;0.45;;;16.00;91.00;;;;;;10435641;28;20044;-61
2022/09/20 11:10:59;;;;;;;1.92;0.82;;;16.10;91.10;;;;;;10427491;28;20469;-61
2022/09/20 11:16:18;;;;;;;1.48;0.60;;;16.10;91.00;;;;;;10429965;28;20218;-62
2022/09/20 11:21:51;;;;;;;1.50;0.75;;;16.10;90.90;;;;;;10383878;22;20060;-63
2022/09/20 11:26:56;;;;;;;1.45;0.60;;;16.20;90.90;;;;;;10329325;28;20542;-61
2022/09/20 11:32:27;;;;;;;4.40;0.68;;;16.20;90.90;;;;;;10363425;28;20481;-62
2022/09/20 11:37:39;;;;;;;2.85;0.63;;;16.20;90.90;;;;;;10349341;28;20437;-61
2022/09/20 11:42:41;;;;;;;1.02;0.73;;;16.30;90.80;;;;;;10358631;28;20040;-61
2022/09/20 11:47:45;;;;;;;1.10;0.50;;;16.30;90.80;;;;;;10361623;28;20410;-61
2022/09/20 11:53:04;;;;;;;1.48;0.50;;;16.40;90.70;;;;;;10358394;28;20506;-62
2022/09/20 11:58:11;;;;;;;1.05;0.50;;;16.40;90.70;;;;;;10362353;28;20192;-62
2022/09/20 12:03:25;;;;;;;1.85;0.75;;;16.40;90.80;;;;;;10362727;28;20041;-63
2022/09/20 12:08:36;;;;;;;1.63;0.47;;;16.30;90.90;;;;;;10366402;28;20076;-62
2022/09/20 12:13:39;;;;;;;0.98;0.57;;;16.30;91.10;;;;;;10362208;28;20129;-60
2022/09/20 12:18:59;;;;;;;2.53;0.80;;;16.20;91.20;;;;;;10352798;28;20037;-61
2022/09/20 12:24:09;;;;;;;2.75;0.50;;;16.20;91.10;;;;;;10355359;28;20318;-61
2022/09/20 12:29:22;;;;;;;2.20;0.55;;;16.30;91.10;;;;;;10359909;28;20021;-64
2022/09/20 12:34:27;;;;;;;4.97;0.70;;;16.30;91.20;;;;;;10364308;28;20138;-60
2022/09/20 12:39:37;;;;;;;0.95;0.47;;;16.30;91.20;;;;;;10353623;28;20037;-73
2022/09/20 12:44:50;;;;;;;1.73;0.82;;;16.40;91.20;;;;;;10357497;28;20048;-64
2022/09/20 12:55:48;;;;;;;1.55;0.50;;;16.40;91.10;;;;;;10367566;28;20079;-69
2022/09/20 13:00:58;;;;;;;2.25;0.55;;;16.50;91.20;;;;;;10355280;28;20449;-61
2022/09/20 13:06:05;;;;;;;1.25;0.65;;;16.50;91.20;;;;;;10376620;22;20063;-62
2022/09/20 13:11:11;;;;;;;0.75;0.50;;;16.50;91.20;;;;;;10377100;28;20419;-61
2022/09/20 13:16:27;;;;;;;1.33;0.45;;;16.50;91.20;;;;;;10371534;28;20046;-61
2022/09/20 13:21:29;;;;;;;2.65;0.80;;;16.20;91.10;;;;;;10373815;28;20032;-63
2022/09/20 13:26:39;;;;;;;1.90;0.50;;;16.50;91.20;;;;;;10380397;28;20036;-61
2022/09/20 13:31:40;;;;;;;1.45;0.50;;;16.50;91.30;;;;;;10376744;28;20398;-61
2022/09/20 13:36:41;;;;;;;1.60;0.57;;;16.50;91.30;;;;;;10385991;28;20621;-64
2022/09/20 13:41:42;;;;;;;1.90;0.50;;;16.50;91.40;;;;;;10392179;28;20575;-62
2022/09/20 13:46:44;;;;;;;1.55;0.50;;;16.50;91.40;;;;;;10428106;22;20083;-62
2022/09/20 13:51:46;;;;;;;1.13;0.45;;;16.50;91.50;;;;;;10392820;28;20500;-64
2022/09/20 13:56:49;;;;;;;2.58;0.60;;;16.50;91.50;;;;;;10385378;28;20387;-64
2022/09/20 14:01:53;;;;;;;1.05;0.50;;;16.50;91.50;;;;;;10380443;28;20040;-65
2022/09/20 14:06:58;;;;;;;3.33;0.80;;;16.50;91.50;;;;;;10377785;28;20051;-70
2022/09/20 14:12:00;;;;;;;1.88;0.60;;;16.60;91.30;;;;;;10375639;28;21009;-69
2022/09/20 14:17:05;;;;;;;0.98;0.43;;;16.80;91.20;;;;;;10381466;28;20040;-64
2022/09/20 14:22:07;;;;;;;0.55;0.40;;;16.90;91.00;;;;;;10384185;28;20451;-62
2022/09/20 14:27:21;;;;;;;0.95;0.35;;;17.00;90.90;;;;;;10399999;28;20565;-61
2022/09/20 14:32:33;;;;;;;2.15;0.45;;;17.20;90.80;;;;;;10386459;28;20043;-68
2022/09/20 14:37:45;;;;;;;2.33;0.40;;;17.30;90.50;;;;;;10461459;22;20044;-63
2022/09/20 14:42:49;;;;;;;0.63;0.40;;;17.40;90.50;;;;;;10365330;28;20056;-63
2022/09/20 14:48:04;;;;;;;3.38;0.57;;;17.50;90.30;;;;;;10363657;28;20029;-63
2022/09/20 14:53:21;;;;;;;0.70;0.40;;;17.60;90.20;;;;;;10361624;28;20029;-63
2022/09/20 14:58:24;;;;;;;1.30;0.50;;;17.70;90.10;;;;;;10370832;28;20443;-63
2022/09/20 15:03:53;;;;;;;1.80;0.50;;;17.80;90.10;;;;;;10356438;28;20076;-64
2022/09/20 15:08:54;;;;;;;2.58;0.40;;;17.80;89.90;;;;;;10368559;28;20041;-62
2022/09/20 15:13:55;;;;;;;0.32;0.30;;;17.90;89.70;;;;;;10440833;22;20048;-68
2022/09/20 15:18:55;;;;;;;1.48;0.50;;;17.80;89.80;;;;;;10405786;28;20044;-62
2022/09/20 15:23:56;;;;;;;4.32;0.70;;;17.70;90.10;;;;;;10403680;28;20132;-64
2022/09/20 15:28:57;;;;;;;3.20;1.15;;;17.50;89.40;;;;;;10428183;22;20060;-62
2022/09/20 15:33:58;;;;;;;4.70;0.75;;;17.10;88.30;;;;;;10434139;28;20264;-62
2022/09/20 15:38:59;;;;;;;2.50;0.60;;;16.90;87.80;;;;;;10453178;22;20084;-62
2022/09/20 15:44:02;;;;;;;3.92;0.50;;;16.60;86.90;;;;;;10388556;28;20041;-70
2022/09/20 15:49:05;;;;;;;2.08;0.45;;;16.40;86.10;;;;;;10387583;28;20054;-62
2022/09/20 15:54:06;;;;;;;1.80;0.35;;;16.20;86.50;;;;;;10389924;28;20922;-61
2022/09/20 15:59:11;;;;;;;3.88;0.75;;;16.10;86.30;;;;;;10387086;28;20420;-65
2022/09/20 16:04:14;;;;;;;2.00;0.95;;;16.00;86.50;;;;;;10394654;28;20039;-62
2022/09/20 16:09:17;;;;;;;2.20;0.60;;;16.00;86.40;;;;;;10387666;28;20505;-64
2022/09/20 16:14:17;;;;;;;2.42;0.45;;;15.80;86.30;;;;;;10386654;28;20127;-60
2022/09/20 16:19:22;;;;;;;2.30;0.50;;;15.80;86.20;;;;;;10384164;28;20024;-61
2022/09/20 16:24:26;;;;;;;3.20;0.32;;;15.80;86.40;;;;;;10385549;28;20040;-66
2022/09/20 16:29:28;;;;;;;3.67;0.70;;;15.70;86.60;;;;;;10389572;28;20029;-62
2022/09/20 16:34:32;;;;;;;2.65;0.47;;;15.70;87.50;;;;;;10373120;28;20040;-71
2022/09/20 16:39:34;;;;;;;2.72;0.50;;;15.60;87.00;;;;;;10384321;28;20056;-61
2022/09/20 16:44:36;;;;;;;4.22;0.45;;;15.20;87.20;;;;;;10389997;28;20769;-62
2022/09/20 16:49:38;;;;;;;4.32;0.88;;;15.60;87.50;;;;;;10375465;28;20036;-63
2022/09/20 16:59:42;;;;;;;3.95;0.95;;;15.60;88.00;;;;;;10399966;28;20091;-63
2022/09/20 17:04:42;;;;;;;3.22;1.00;;;15.50;88.20;;;;;;10394719;28;20091;-62
2022/09/20 17:09:43;;;;;;;3.15;1.17;;;15.40;88.70;;;;;;10399296;28;20499;-67
2022/09/20 17:14:44;;;;;;;3.38;0.90;;;15.30;89.20;;;;;;10397394;28;20379;-64
2022/09/20 17:19:45;;;;;;;4.63;0.70;;;15.30;89.70;;;;;;10392458;28;20032;-64
2022/09/20 17:24:45;;;;;;;3.90;0.68;;;15.20;90.10;;;;;;10399946;28;20488;-65
2022/09/20 17:29:46;;;;;;;4.32;0.90;;;15.30;90.00;;;;;;10344928;22;20358;-65
2022/09/20 17:34:47;;;;;;;1.40;0.90;;;15.60;90.00;;;;;;10299363;28;20532;-63
2022/09/20 17:39:49;;;;;;;3.20;0.80;;;15.70;90.00;;;;;;10303994;28;20032;-65
2022/09/20 17:44:49;;;;;;;4.30;1.17;;;15.90;90.10;;;;;;10295448;28;20252;-65
2022/09/20 17:49:53;;;;;;;2.83;0.80;;;15.80;90.10;;;;;;10300192;28;20418;-64
2022/09/20 17:54:55;;;;;;;5.00;0.93;;;15.90;90.10;;;;;;10301313;28;20030;-65
2022/09/20 17:59:55;;;;;;;4.05;1.38;;;16.00;90.10;;;;;;10294854;28;20022;-64
2022/09/20 18:04:56;;;;;;;2.35;1.02;;;16.10;90.20;;;;;;10304462;28;20818;-64
2022/09/20 18:09:57;;;;;;;2.40;1.15;;;16.10;90.20;;;;;;10419781;22;20047;-64
2022/09/20 18:15:00;;;;;;;2.78;1.25;;;16.10;90.20;;;;;;10435034;28;20489;-64
2022/09/20 18:20:01;;;;;;;3.67;1.27;;;16.20;90.20;;;;;;10427909;28;20516;-64
2022/09/20 18:25:02;;;;;;;6.57;1.67;;;16.20;90.20;;;;;;10432534;28;20033;-65
2022/09/20 18:30:03;;;;;;;2.50;1.23;;;16.20;90.30;;;;;;10427465;28;20040;-65
2022/09/20 18:35:05;;;;;;;3.53;1.50;;;16.10;90.30;;;;;;10425244;28;20050;-64
2022/09/20 18:40:06;;;;;;;2.38;1.30;;;16.10;90.30;;;;;;10429325;28;20029;-65
2022/09/20 18:45:07;;;;;;;3.13;2.17;;;16.20;90.40;;;;;;10414405;28;20348;-65
2022/09/20 18:50:09;;;;;;;2.38;1.10;;;16.10;90.40;;;;;;10414681;28;20030;-65
2022/09/20 18:55:10;;;;;;;2.22;1.27;;;16.10;90.40;;;;;;10424398;28;20029;-65
2022/09/20 19:00:11;;;;;;;1.45;1.25;;;16.10;90.50;;;;;;10430403;28;20059;-65
2022/09/20 19:05:38;;;;;;;2.28;1.35;;;16.10;90.50;;;;;;10426957;28;20049;-64
2022/09/20 19:10:55;;;;;;;4.05;1.50;;;16.10;90.50;;;;;;10405950;28;20054;-65
2022/09/20 19:16:26;;;;;;;3.63;1.52;;;16.00;90.60;;;;;;10430324;28;20082;-65
2022/09/20 19:21:35;;;;;;;4.20;1.73;;;16.00;90.60;;;;;;10435096;28;20132;-64
2022/09/20 19:26:37;;;;;;;6.22;2.10;;;15.60;90.60;;;;;;10436635;28;20033;-65
2022/09/20 19:31:38;;;;;;;4.80;2.33;;;16.00;90.70;;;;;;10430769;28;20319;-65
2022/09/20 19:37:07;;;;;;;6.55;2.45;;;16.00;90.70;;;;;;10432864;28;20022;-65
2022/09/20 19:42:23;;;;;;;3.25;2.08;;;16.00;90.70;;;;;;10433644;28;20048;-66
2022/09/20 19:47:45;;;;;;;4.82;2.30;;;15.90;90.70;;;;;;10438382;28;20035;-65
2022/09/20 19:52:46;;;;;;;3.92;2.45;;;15.90;90.70;;;;;;10436120;28;20083;-65
2022/09/20 19:57:47;;;;;;;5.60;2.53;;;15.90;90.80;;;;;;10437639;28;20379;-65
2022/09/20 20:02:48;;;;;;;4.30;2.20;;;15.90;90.80;;;;;;10426275;28;20041;-64
2022/09/20 20:08:02;;;;;;;7.45;2.75;;;15.80;90.80;;;;;;10415614;28;20431;-65
2022/09/20 20:18:50;;;;;;;4.65;2.47;;;15.80;90.80;;;;;;10417383;28;20505;-65
2022/09/20 20:24:17;;;;;;;4.18;2.70;;;15.70;90.70;;;;;;10426534;28;20440;-64
2022/09/20 20:29:17;;;;;;;5.68;2.40;;;15.70;90.70;;;;;;10422901;28;20678;-64
2022/09/20 20:34:19;;;;;;;4.75;2.25;;;15.70;90.80;;;;;;10419595;28;20022;-65
2022/09/20 20:39:20;;;;;;;3.75;2.40;;;15.70;90.80;;;;;;10431890;28;20112;-64
2022/09/20 20:44:20;;;;;;;3.92;2.20;;;15.70;90.80;;;;;;10434989;28;20037;-65
2022/09/20 20:49:22;;;;;;;5.18;2.38;;;15.60;90.80;;;;;;10433320;28;20024;-65
2022/09/20 20:54:23;;;;;;;2.67;1.80;;;15.60;90.80;;;;;;10428674;28;20439;-65
2022/09/20 20:59:24;;;;;;;5.30;2.00;;;15.60;90.80;;;;;;10430943;28;20418;-66
2022/09/20 21:04:26;;;;;;;3.80;2.20;;;15.60;90.80;;;;;;10427764;28;20041;-64
2022/09/20 21:09:26;;;;;;;2.20;1.63;;;15.50;90.80;;;;;;10434683;28;20028;-64
2022/09/20 21:14:28;;;;;;;2.58;1.67;;;15.50;90.80;;;;;;10414894;28;20037;-64
2022/09/20 21:19:28;;;;;;;3.67;1.42;;;15.50;90.70;;;;;;10432209;28;20029;-65
2022/09/20 21:24:29;;;;;;;2.85;1.70;;;15.50;90.70;;;;;;10430272;28;20037;-65
2022/09/20 21:29:30;;;;;;;2.63;1.50;;;15.50;90.70;;;;;;10423992;28;20515;-65
2022/09/20 21:34:31;;;;;;;2.25;1.30;;;15.40;90.70;;;;;;10419833;28;20033;-66
2022/09/20 21:39:31;;;;;;;3.65;1.52;;;15.40;90.70;;;;;;10416323;28;20333;-65
2022/09/20 21:44:32;;;;;;;2.55;1.77;;;15.40;90.70;;;;;;10419659;28;20051;-65
2022/09/20 21:49:33;;;;;;;3.65;1.80;;;15.30;90.70;;;;;;10422416;28;20115;-66
2022/09/20 21:54:34;;;;;;;3.65;2.00;;;15.30;90.70;;;;;;10420639;28;20036;-65
2022/09/20 21:59:35;;;;;;;3.88;2.25;;;15.30;90.60;;;;;;10415868;28;20476;-66
2022/09/20 22:04:46;;;;;;;3.08;2.05;;;15.30;90.70;;;;;;10423608;28;20360;-65
2022/09/20 22:09:47;;;;;;;4.82;2.38;;;15.30;90.60;;;;;;10396903;28;20496;-64
2022/09/20 22:14:48;;;;;;;4.35;2.10;;;15.20;90.60;;;;;;10413962;28;20025;-64
2022/09/20 22:19:49;;;;;;;3.65;2.00;;;15.20;90.70;;;;;;10411714;28;20025;-64
2022/09/20 22:24:50;;;;;;;3.65;2.13;;;15.20;90.60;;;;;;10426466;28;20043;-64
2022/09/20 22:29:51;;;;;;;3.25;1.80;;;15.20;90.60;;;;;;10423275;28;20036;-64
2022/09/20 22:34:52;;;;;;;3.67;2.00;;;15.10;90.60;;;;;;10410906;28;20382;-65
2022/09/20 22:39:53;;;;;;;3.88;1.98;;;15.10;90.50;;;;;;10426207;28;20036;-64
2022/09/20 22:44:53;;;;;;;2.85;1.80;;;15.10;90.50;;;;;;10430454;28;20501;-64
2022/09/20 22:49:54;;;;;;;3.13;1.90;;;15.10;90.50;;;;;;10429451;28;20029;-64
2022/09/20 22:54:55;;;;;;;3.58;1.70;;;15.10;90.50;;;;;;10433672;28;20640;-65
2022/09/20 22:59:56;;;;;;;3.47;1.92;;;15.00;90.50;;;;;;10426923;28;20466;-65
2022/09/20 23:04:56;;;;;;;3.58;1.70;;;15.00;90.40;;;;;;10427900;28;20374;-65
2022/09/20 23:09:57;;;;;;;3.55;1.80;;;15.00;90.40;;;;;;10432043;28;20069;-64
2022/09/20 23:14:58;;;;;;;2.33;1.58;;;15.00;90.40;;;;;;10440100;28;20112;-64
2022/09/20 23:19:59;;;;;;;1.92;1.33;;;14.90;90.40;;;;;;10441636;28;20033;-64
2022/09/20 23:25:00;;;;;;;2.05;1.52;;;14.90;90.40;;;;;;10436592;28;20068;-64
2022/09/20 23:30:01;;;;;;;4.63;1.80;;;14.90;90.40;;;;;;10431541;28;20026;-64
2022/09/20 23:35:01;;;;;;;4.38;1.67;;;14.90;90.40;;;;;;10435213;28;20116;-63
2022/09/20 23:40:02;;;;;;;2.05;1.52;;;14.90;90.70;;;;;;10433993;28;20028;-64
2022/09/20 23:45:04;;;;;;;2.42;1.70;;;14.80;90.40;;;;;;10426898;28;20046;-64
2022/09/20 23:50:05;;;;;;;2.35;1.50;;;14.80;90.30;;;;;;10432728;28;20090;-64
2022/09/20 23:55:06;;;;;;;2.65;1.83;;;14.80;90.30;;;;;;10429072;28;20641;-64
